Time;durP1;ratioP1;P1;durP2;ratioP2;P2;SDS_P1;SDS_P2;PMS_P1;PMS_P2;Temp;Humidity;BMP_temperature;BMP_pressure;BME280_temperature;BME280_humidity;BME280_pressure;Samples;Min_cycle;Max_cycle;Signal;HPM_P1;HPM_P2
2022/07/22 00:02:30;;;;;;;9.30;4.47;;;;;;;20.64;96.05;99755.50;10371177;28;20418;-70
2022/07/22 00:07:30;;;;;;;6.85;3.80;;;;;;;20.68;95.39;99759.31;10372417;28;20042;-70
2022/07/22 00:12:31;;;;;;;6.30;3.80;;;;;;;20.73;94.38;99759.41;10371598;28;20046;-70
2022/07/22 00:17:32;;;;;;;8.65;4.45;;;;;;;20.78;94.58;99760.53;10370907;28;20545;-70
2022/07/22 00:22:33;;;;;;;7.13;4.10;;;;;;;20.75;94.64;99756.44;10370896;28;20409;-71
2022/07/22 00:27:34;;;;;;;10.68;4.50;;;;;;;20.47;95.53;99741.19;10371760;28;20112;-70
2022/07/22 00:32:35;;;;;;;6.35;4.55;;;;;;;20.40;95.96;99743.22;10374405;28;20136;-70
2022/07/22 00:37:36;;;;;;;8.35;4.50;;;;;;;20.44;96.70;99774.06;10378003;28;20041;-70
2022/07/22 00:42:37;;;;;;;5.88;3.97;;;;;;;19.86;97.14;99697.06;10378043;28;20448;-70
2022/07/22 00:47:38;;;;;;;14.82;5.30;;;;;;;20.30;97.89;99770.84;10378600;28;20104;-70
2022/07/22 00:52:39;;;;;;;7.53;4.70;;;;;;;20.17;98.08;99766.63;10378113;28;20088;-70
2022/07/22 00:57:40;;;;;;;20.73;4.93;;;;;;;20.18;98.40;99772.81;10377287;28;20046;-70
2022/07/22 01:02:41;;;;;;;16.90;4.90;;;;;;;20.16;97.89;99781.19;10377802;28;20049;-70
2022/07/22 01:07:42;;;;;;;23.60;6.13;;;;;;;19.59;97.80;99689.59;10377458;28;20595;-70
2022/07/22 01:12:43;;;;;;;7.70;4.55;;;;;;;20.00;97.08;99765.78;10377312;28;20163;-70
2022/07/22 01:17:44;;;;;;;8.43;4.35;;;;;;;19.62;96.80;99707.97;10377068;28;20049;-70
2022/07/22 01:22:45;;;;;;;8.73;4.45;;;;;;;19.89;96.46;99775.56;10376495;28;20128;-70
2022/07/22 01:27:45;;;;;;;17.65;5.10;;;;;;;19.56;96.47;99725.94;10376198;28;20099;-70
2022/07/22 01:32:46;;;;;;;40.15;7.13;;;;;;;19.73;96.88;99766.41;10376213;28;20046;-70
2022/07/22 01:37:47;;;;;;;10.35;4.50;;;;;;;19.70;96.75;99769.59;10375585;28;20048;-70
2022/07/22 01:42:48;;;;;;;8.23;5.05;;;;;;;19.18;96.43;99699.63;10374651;28;20097;-70
2022/07/22 01:47:49;;;;;;;6.60;4.85;;;;;;;19.56;96.66;99784.38;10368689;28;20137;-70
2022/07/22 01:52:49;;;;;;;10.70;4.72;;;;;;;19.44;96.74;99768.25;10358278;28;20085;-70
2022/07/22 01:57:50;;;;;;;6.93;4.35;;;;;;;19.52;96.62;99786.72;10361072;28;20097;-70
2022/07/22 02:02:51;;;;;;;9.68;4.50;;;;;;;19.50;96.84;99794.22;10334877;28;20486;-70
2022/07/22 02:07:52;;;;;;;9.70;4.68;;;;;;;19.53;96.96;99795.63;10376930;28;20044;-70
2022/07/22 02:12:52;;;;;;;9.65;5.10;;;;;;;19.14;96.61;99728.94;10375236;28;20046;-70
2022/07/22 02:17:54;;;;;;;7.80;4.80;;;;;;;19.08;96.83;99712.88;10374668;28;20386;-70
2022/07/22 02:22:55;;;;;;;7.88;4.75;;;;;;;19.42;97.24;99773.06;10374590;28;20133;-70
2022/07/22 02:27:56;;;;;;;20.00;4.82;;;;;;;19.49;96.81;99775.63;10373974;28;20522;-70
2022/07/22 02:32:57;;;;;;;15.35;4.80;;;;;;;19.62;96.80;99786.09;10374541;28;20050;-70
2022/07/22 02:37:58;;;;;;;12.63;5.07;;;;;;;19.78;96.68;99784.56;10374979;28;20033;-70
2022/07/22 02:42:59;;;;;;;8.70;4.78;;;;;;;19.96;96.18;99805.91;10373220;28;20042;-69
2022/07/22 02:48:00;;;;;;;11.05;5.45;;;;;;;19.95;96.34;99800.75;10374188;28;20112;-69
2022/07/22 02:53:01;;;;;;;8.52;4.82;;;;;;;19.98;96.07;99797.56;10373095;28;20049;-70
2022/07/22 02:58:06;;;;;;;8.00;5.15;;;;;;;20.16;97.34;99807.31;10388169;28;20048;-70
2022/07/22 03:03:07;;;;;;;10.15;4.85;;;;;;;20.18;95.49;99789.00;10374090;28;20048;-69
2022/07/22 03:08:07;;;;;;;15.52;5.57;;;;;;;20.54;95.11;99817.41;10372578;28;20408;-70
2022/07/22 03:13:08;;;;;;;9.30;4.97;;;;;;;20.74;94.21;99816.88;10372404;28;20042;-70
2022/07/22 03:18:09;;;;;;;7.57;4.75;;;;;;;20.48;93.25;99745.50;10372518;28;20034;-70
2022/07/22 03:23:10;;;;;;;8.88;4.32;;;;;;;21.11;92.28;99795.50;10373091;28;20038;-70
2022/07/22 03:28:11;;;;;;;8.30;4.40;;;;;;;21.01;91.78;99756.78;10372462;28;20141;-70
2022/07/22 03:33:12;;;;;;;12.48;5.20;;;;;;;21.32;91.32;99804.69;10372378;28;20046;-69
2022/07/22 03:38:12;;;;;;;24.38;5.78;;;;;;;21.61;90.84;99815.31;10372086;28;20457;-70
2022/07/22 03:43:13;;;;;;;9.73;4.47;;;;;;;21.60;90.17;99817.22;10372628;28;20064;-69
2022/07/22 03:48:14;;;;;;;8.02;3.97;;;;;;;21.53;88.07;99818.47;10371941;28;20072;-69
2022/07/22 03:53:16;;;;;;;7.85;4.28;;;;;;;21.55;86.71;99827.97;10371351;28;20413;-69
2022/07/22 03:58:18;;;;;;;9.88;3.92;;;;;;;21.33;85.99;99778.47;10371443;28;20046;-70
2022/07/22 04:03:19;;;;;;;10.05;4.00;;;;;;;20.97;84.96;99734.88;10372375;28;20041;-69
2022/07/22 04:08:20;;;;;;;12.98;4.07;;;;;;;21.60;84.16;99813.72;10376968;28;20069;-70
2022/07/22 04:13:20;;;;;;;10.55;4.30;;;;;;;22.28;81.83;99822.22;10379127;28;20069;-70
2022/07/22 04:18:21;;;;;;;8.18;3.97;;;;;;;22.21;80.75;99818.91;10370421;28;20046;-70
2022/07/22 04:23:22;;;;;;;16.65;4.18;;;;;;;21.55;79.92;99743.38;10358283;28;20552;-69
2022/07/22 04:28:23;;;;;;;6.68;4.05;;;;;;;22.08;80.55;99823.66;10406418;28;20037;-70
2022/07/22 04:33:24;;;;;;;9.25;4.00;;;;;;;22.68;78.52;99831.75;10407818;28;20049;-69
2022/07/22 04:38:24;;;;;;;8.85;4.05;;;;;;;22.79;76.74;99834.25;10395944;28;20567;-70
2022/07/22 04:43:25;;;;;;;8.50;4.45;;;;;;;22.83;74.74;99764.13;10378037;28;20038;-68
2022/07/22 04:48:26;;;;;;;8.27;3.97;;;;;;;23.33;71.39;99767.34;10378785;28;20148;-70
2022/07/22 04:53:27;;;;;;;7.95;3.88;;;;;;;23.80;70.26;99845.06;10377299;28;20041;-70
2022/07/22 04:58:28;;;;;;;7.80;3.40;;;;;;;23.90;69.22;99837.75;10392802;28;20041;-71
2022/07/22 05:03:30;;;;;;;6.65;4.10;;;;;;;23.82;66.29;99772.38;10377051;28;20046;-71
2022/07/22 05:08:31;;;;;;;8.70;3.90;;;;;;;24.29;64.66;99833.72;10378010;28;20038;-69
2022/07/22 05:13:31;;;;;;;7.65;3.72;;;;;;;23.96;64.34;99846.72;10377528;28;20033;-70
2022/07/22 05:18:33;;;;;;;8.07;3.40;;;;;;;23.68;65.71;99840.66;10377973;28;20030;-71
2022/07/22 05:23:34;;;;;;;10.80;3.38;;;;;;;23.41;65.11;99808.28;10377478;28;20478;-70
2022/07/22 05:28:35;;;;;;;7.15;3.35;;;;;;;23.78;64.34;99822.78;10377304;28;20052;-71
2022/07/22 05:33:35;;;;;;;5.68;3.03;;;;;;;24.25;63.23;99841.59;10376923;28;20037;-71
2022/07/22 05:38:36;;;;;;;5.03;2.92;;;;;;;25.30;59.53;99836.59;10376710;28;20053;-71
2022/07/22 05:43:37;;;;;;;5.72;3.40;;;;;;;25.98;56.66;99828.63;10377025;28;20044;-70
2022/07/22 05:48:38;;;;;;;9.88;3.22;;;;;;;25.73;56.81;99810.56;10376278;28;20073;-71
2022/07/22 05:53:39;;;;;;;6.03;3.10;;;;;;;26.39;55.74;99826.41;10376284;28;20033;-70
2022/07/22 05:58:42;;;;;;;5.88;2.90;;;;;;;26.43;53.45;99818.50;10376529;28;20038;-70
2022/07/22 06:03:43;;;;;;;9.23;3.23;;;;;;;26.57;53.44;99818.69;10375894;28;20041;-70
2022/07/22 06:08:44;;;;;;;6.32;2.97;;;;;;;26.58;53.53;99807.47;10374784;28;20034;-70
2022/07/22 06:13:44;;;;;;;5.10;2.63;;;;;;;26.97;52.78;99819.34;10375009;28;20038;-70
2022/07/22 06:18:45;;;;;;;5.97;3.03;;;;;;;26.59;51.13;99754.66;10375158;28;20116;-69
2022/07/22 06:23:46;;;;;;;7.93;3.00;;;;;;;26.62;51.01;99753.22;10374817;28;20030;-70
2022/07/22 06:28:47;;;;;;;3.80;3.00;;;;;;;27.14;50.37;99795.16;10374318;28;20042;-71
2022/07/22 06:33:48;;;;;;;7.63;2.67;;;;;;;27.30;49.55;99812.16;10374800;28;20477;-71
2022/07/22 06:38:48;;;;;;;8.02;2.83;;;;;;;27.18;49.43;99729.97;10374365;28;20026;-70
2022/07/22 06:43:49;;;;;;;5.78;2.55;;;;;;;27.83;47.67;99805.75;10373535;28;20037;-70
2022/07/22 06:48:50;;;;;;;8.93;2.90;;;;;;;27.84;46.42;99791.81;10374410;28;20050;-70
2022/07/22 06:53:51;;;;;;;6.32;2.63;;;;;;;27.69;46.33;99781.88;10373528;28;20442;-70
2022/07/22 06:58:52;;;;;;;5.15;2.78;;;;;;;27.42;45.64;99714.34;10373310;28;20470;-70
2022/07/22 07:03:53;;;;;;;11.13;3.22;;;;;;;28.18;45.55;99777.91;10372990;28;20030;-70
2022/07/22 07:08:53;;;;;;;4.50;2.80;;;;;;;28.34;44.81;99769.44;10374468;28;20046;-71
2022/07/22 07:13:54;;;;;;;7.05;3.10;;;;;;;28.07;44.41;99776.44;10372638;28;20051;-71
2022/07/22 07:18:55;;;;;;;4.25;2.78;;;;;;;27.42;44.35;99699.91;10372747;28;20545;-69
2022/07/22 07:23:56;;;;;;;6.03;2.50;;;;;;;27.87;43.30;99695.69;10373078;28;20034;-71
2022/07/22 07:28:57;;;;;;;17.77;2.50;;;;;;;28.28;42.19;99716.81;10372253;28;20482;-71
2022/07/22 07:33:58;;;;;;;4.82;2.72;;;;;;;28.50;42.05;99745.41;10372064;28;20037;-69
2022/07/22 07:38:59;;;;;;;3.83;2.50;;;;;;;27.60;42.16;99685.44;10372943;28;20053;-70
2022/07/22 07:43:59;;;;;;;5.95;2.78;;;;;;;27.57;42.62;99748.78;10378547;28;20034;-69
2022/07/22 07:49:00;;;;;;;7.72;3.00;;;;;;;28.17;42.85;99762.59;10381137;28;20068;-70
2022/07/22 07:54:01;;;;;;;8.10;2.58;;;;;;;28.47;41.62;99741.34;10380491;28;20065;-71
2022/07/22 07:59:02;;;;;;;7.70;2.85;;;;;;;28.28;41.63;99732.41;10381443;28;20038;-70
2022/07/22 08:04:03;;;;;;;6.10;2.40;;;;;;;28.26;41.53;99737.34;10380352;28;20045;-69
2022/07/22 08:09:04;;;;;;;5.72;2.28;;;;;;;27.61;42.45;99686.25;10380183;28;20037;-71
2022/07/22 08:14:05;;;;;;;8.30;2.38;;;;;;;27.79;42.42;99682.72;10379851;28;20038;-70
2022/07/22 08:19:05;;;;;;;4.50;2.00;;;;;;;28.40;40.78;99729.97;10379823;28;20030;-70
2022/07/22 08:24:09;;;;;;;6.28;1.98;;;;;;;28.81;40.02;99716.38;10381903;28;20444;-70
2022/07/22 08:29:10;;;;;;;5.25;2.50;;;;;;;29.10;39.45;99742.59;10379036;28;20049;-70
2022/07/22 08:34:11;;;;;;;3.63;2.00;;;;;;;29.21;38.59;99718.56;10378140;28;20119;-69
2022/07/22 08:39:12;;;;;;;13.23;3.05;;;;;;;29.35;39.35;99711.94;10378819;28;20096;-71
2022/07/22 08:44:13;;;;;;;11.38;2.67;;;;;;;29.59;38.74;99713.59;10377461;28;20137;-70
2022/07/22 08:49:15;;;;;;;5.28;2.00;;;;;;;29.72;37.49;99718.22;10377488;28;20077;-69
2022/07/22 08:54:16;;;;;;;4.07;1.80;;;;;;;30.01;37.30;99706.84;10377772;28;20038;-69
2022/07/22 08:59:17;;;;;;;5.03;2.10;;;;;;;29.67;36.96;99704.66;10377865;28;20493;-70
2022/07/22 09:04:18;;;;;;;4.63;2.00;;;;;;;28.96;37.95;99622.28;10378207;28;20046;-69
2022/07/22 09:09:31;;;;;;;8.65;2.28;;;;;;;29.30;39.53;99700.31;10376970;28;20044;-70
2022/07/22 09:14:48;;;;;;;4.10;2.03;;;;;;;29.22;37.94;99685.44;10377430;28;20041;-70
2022/07/22 09:19:49;;;;;;;20.10;2.65;;;;;;;29.13;39.10;99660.72;10377736;28;20045;-71
2022/07/22 09:24:50;;;;;;;8.13;2.20;;;;;;;29.23;38.87;99684.34;10376442;28;20051;-69
2022/07/22 09:29:52;;;;;;;3.85;1.98;;;;;;;29.13;39.81;99684.53;10375951;28;20042;-70
2022/07/22 09:35:03;;;;;;;5.83;2.20;;;;;;;29.41;39.14;99693.50;10376824;28;20038;-70
2022/07/22 09:40:14;;;;;;;7.15;1.90;;;;;;;29.69;38.94;99669.59;10391773;28;20460;-70
2022/07/22 09:45:16;;;;;;;5.47;1.95;;;;;;;29.72;37.82;99662.69;10375159;28;20038;-70
2022/07/22 09:50:21;;;;;;;3.55;1.75;;;;;;;29.39;37.09;99621.84;10376335;28;20093;-70
2022/07/22 09:55:23;;;;;;;7.47;2.20;;;;;;;29.74;38.22;99658.50;10390449;28;20048;-70
2022/07/22 10:00:26;;;;;;;4.47;2.22;;;;;;;29.35;38.27;99602.53;10375701;28;20084;-71
2022/07/22 10:05:30;;;;;;;4.10;2.00;;;;;;;29.95;37.06;99671.69;10374835;28;20037;-70
2022/07/22 10:10:33;;;;;;;5.15;2.10;;;;;;;29.81;36.94;99674.50;10375397;28;20050;-70
2022/07/22 10:15:35;;;;;;;7.00;2.00;;;;;;;29.67;37.65;99663.59;10374486;28;20156;-71
2022/07/22 10:20:36;;;;;;;4.37;1.80;;;;;;;29.55;37.87;99655.91;10373728;28;20045;-71
2022/07/22 10:25:54;;;;;;;3.58;1.83;;;;;;;29.61;38.51;99667.56;10375708;28;20525;-71
2022/07/22 10:31:20;;;;;;;8.45;2.22;;;;;;;29.69;38.23;99653.16;10373825;28;20548;-71
2022/07/22 10:36:38;;;;;;;6.97;2.22;;;;;;;29.70;38.22;99660.25;10373642;28;20038;-71
2022/07/22 10:41:40;;;;;;;5.63;2.25;;;;;;;29.91;37.46;99667.94;10373567;28;20059;-71
2022/07/22 10:46:58;;;;;;;3.97;1.90;;;;;;;29.91;36.95;99646.03;10373887;28;20495;-70
2022/07/22 10:52:08;;;;;;;4.10;1.95;;;;;;;29.98;37.24;99660.09;10388519;28;20068;-69
2022/07/22 10:57:09;;;;;;;2.40;1.73;;;;;;;29.88;37.90;99652.94;10374696;28;20092;-70
2022/07/22 11:02:14;;;;;;;4.00;1.90;;;;;;;30.05;37.84;99674.16;10400829;28;20455;-69
2022/07/22 11:07:17;;;;;;;6.88;1.88;;;;;;;29.88;37.67;99652.13;10372828;28;20050;-71
2022/07/22 11:12:18;;;;;;;12.10;2.13;;;;;;;30.14;38.10;99672.25;10372962;28;20133;-71
2022/07/22 11:17:23;;;;;;;3.42;1.92;;;;;;;29.95;37.69;99642.38;10372861;28;20137;-70
2022/07/22 11:22:24;;;;;;;4.13;1.73;;;;;;;30.40;38.23;99675.16;10374262;28;20060;-71
2022/07/22 11:27:25;;;;;;;8.95;2.13;;;;;;;30.25;37.46;99665.41;10410133;28;20128;-71
2022/07/22 11:32:31;;;;;;;9.75;2.45;;;;;;;29.61;38.40;99655.81;10413156;28;20045;-70
2022/07/22 11:37:32;;;;;;;6.82;1.80;;;;;;;28.96;38.36;99603.16;10413851;28;20073;-70
2022/07/22 11:42:33;;;;;;;4.80;2.20;;;;;;;29.33;39.35;99653.19;10413568;28;20072;-70
2022/07/22 11:47:34;;;;;;;4.50;1.80;;;;;;;29.65;38.77;99670.53;10412954;28;20067;-70
2022/07/22 11:52:34;;;;;;;3.15;1.88;;;;;;;29.76;38.90;99672.69;10413221;28;20056;-72
2022/07/22 11:57:46;;;;;;;2.45;1.73;;;;;;;29.75;38.30;99681.22;10412356;28;20531;-70
2022/07/22 12:02:47;;;;;;;7.67;1.93;;;;;;;29.53;38.77;99677.34;10408277;28;20512;-70
2022/07/22 12:07:48;;;;;;;3.03;1.95;;;;;;;29.47;38.09;99664.09;10412482;28;20045;-71
2022/07/22 12:12:49;;;;;;;3.55;2.00;;;;;;;28.73;38.04;99560.50;10400560;28;20045;-71
2022/07/22 12:17:50;;;;;;;2.90;1.83;;;;;;;29.98;37.79;99669.13;10402722;28;20107;-71
2022/07/22 12:22:50;;;;;;;3.15;2.00;;;;;;;30.47;36.88;99664.53;10388248;28;20391;-70
2022/07/22 12:28:01;;;;;;;3.75;1.90;;;;;;;30.66;35.81;99679.91;10389188;28;20409;-71
2022/07/22 12:33:03;;;;;;;3.03;1.77;;;;;;;30.69;36.23;99673.78;10389510;28;20551;-71
2022/07/22 12:38:09;;;;;;;4.00;1.92;;;;;;;30.67;36.68;99681.53;10407695;28;20045;-71
2022/07/22 12:43:10;;;;;;;6.07;1.90;;;;;;;29.51;36.97;99552.88;10408104;28;20037;-71
2022/07/22 12:48:11;;;;;;;4.60;1.92;;;;;;;29.96;37.54;99676.03;10407800;28;20072;-71
2022/07/22 12:53:15;;;;;;;3.92;2.08;;;;;;;29.66;37.59;99664.72;10412673;28;20041;-70
2022/07/22 12:58:16;;;;;;;4.10;2.00;;;;;;;29.41;38.04;99670.81;10412563;28;20440;-70
2022/07/22 13:03:18;;;;;;;4.82;2.30;;;;;;;29.22;39.22;99676.41;10400015;28;20120;-70
2022/07/22 13:08:20;;;;;;;4.67;2.30;;;;;;;29.01;39.07;99646.75;10395025;28;20052;-70
2022/07/22 13:13:22;;;;;;;7.15;2.08;;;;;;;28.84;39.06;99641.97;10409374;28;20588;-70
2022/07/22 13:18:22;;;;;;;3.20;1.93;;;;;;;28.82;39.19;99654.31;10392924;28;20073;-70
2022/07/22 13:23:25;;;;;;;4.10;1.83;;;;;;;28.58;39.79;99665.47;10396596;28;20061;-71
2022/07/22 13:28:25;;;;;;;5.32;1.95;;;;;;;28.29;39.79;99682.91;10394307;28;20114;-72
2022/07/22 13:33:26;;;;;;;11.68;2.97;;;;;;;26.58;48.42;99654.94;10390704;28;20092;-71
2022/07/22 13:38:27;;;;;;;8.68;3.13;;;;;;;24.69;55.59;99659.09;10393809;28;20033;-72
2022/07/22 13:43:28;;;;;;;7.43;2.92;;;;;;;23.64;60.72;99685.00;10388900;28;20042;-73
2022/07/22 13:48:29;;;;;;;10.50;3.20;;;;;;;23.41;66.13;99742.44;10390714;28;20089;-73
2022/07/22 13:53:30;;;;;;;9.48;4.35;;;;;;;22.91;71.17;99738.44;10375197;28;21302;-73
2022/07/22 13:58:32;;;;;;;20.77;12.65;;;;;;;22.72;75.38;99732.66;10397831;28;20050;-72
2022/07/22 14:03:33;;;;;;;78.75;48.28;;;;;;;22.59;76.54;99704.19;10375190;28;20038;-70
2022/07/22 14:08:33;;;;;;;38.55;21.67;;;;;;;22.76;79.55;99718.34;10407079;28;20397;-71
2022/07/22 14:13:34;;;;;;;13.18;7.78;;;;;;;22.98;80.81;99717.38;10407965;28;20420;-72
2022/07/22 14:18:35;;;;;;;15.57;7.60;;;;;;;22.98;80.94;99691.09;10402197;28;20505;-72
2022/07/22 14:23:36;;;;;;;20.65;12.30;;;;;;;23.29;83.05;99729.13;10400846;28;20034;-72
2022/07/22 14:28:37;;;;;;;14.63;9.32;;;;;;;23.41;83.02;99718.84;10391310;28;20049;-73
2022/07/22 14:33:37;;;;;;;18.33;7.47;;;;;;;23.72;83.81;99723.53;10400210;28;20042;-73
2022/07/22 14:38:38;;;;;;;14.15;7.03;;;;;;;24.01;83.92;99719.19;10396020;28;20060;-74
2022/07/22 14:43:39;;;;;;;12.07;6.05;;;;;;;24.39;83.13;99703.41;10389948;28;20046;-73
2022/07/22 14:48:41;;;;;;;7.18;3.72;;;;;;;24.72;80.63;99739.22;10414327;28;20107;-73
2022/07/22 14:53:42;;;;;;;7.43;3.40;;;;;;;24.65;79.94;99716.94;10413809;28;20048;-72
2022/07/22 14:58:43;;;;;;;14.15;3.40;;;;;;;24.80;81.12;99733.22;10413457;28;20124;-72
2022/07/22 15:03:43;;;;;;;7.07;2.90;;;;;;;24.80;81.21;99731.31;10412590;28;20533;-72
2022/07/22 15:08:44;;;;;;;23.05;3.60;;;;;;;24.29;79.98;99674.41;10411344;28;20126;-72
2022/07/22 15:13:45;;;;;;;8.80;3.00;;;;;;;24.72;79.25;99736.50;10406584;28;20098;-71
2022/07/22 15:18:46;;;;;;;5.20;3.40;;;;;;;24.24;79.50;99646.47;10400777;28;20052;-70
2022/07/22 15:23:48;;;;;;;25.60;3.63;;;;;;;24.76;80.09;99757.38;10402850;28;20493;-71
2022/07/22 15:28:51;;;;;;;14.60;3.95;;;;;;;23.80;82.40;99639.72;10406365;28;20044;-70
2022/07/22 15:33:52;;;;;;;14.15;4.53;;;;;;;24.07;82.85;99699.13;10401859;28;20119;-70
2022/07/22 15:38:53;;;;;;;11.50;4.03;;;;;;;24.14;84.03;99734.94;10399382;28;20044;-70
2022/07/22 15:43:54;;;;;;;6.20;4.28;;;;;;;24.18;85.60;99773.19;10387701;28;20088;-72
2022/07/22 15:48:54;;;;;;;6.15;4.22;;;;;;;24.09;87.07;99782.97;10390645;28;20148;-70
2022/07/22 15:53:55;;;;;;;7.60;5.10;;;;;;;24.02;87.02;99782.41;10393407;28;20087;-71
2022/07/22 16:04:15;;;;;;;4.65;3.58;;;;;;;23.95;84.60;99793.53;10410841;28;20064;-71
2022/07/22 16:09:16;;;;;;;9.20;4.00;;;;;;;23.75;84.89;99780.75;10408796;28;20044;-70
2022/07/22 16:14:17;;;;;;;5.82;3.90;;;;;;;23.72;85.15;99791.31;10401899;28;20045;-70
2022/07/22 16:19:17;;;;;;;11.27;4.13;;;;;;;23.61;85.19;99798.59;10405536;28;20090;-71
2022/07/22 16:24:18;;;;;;;8.00;4.43;;;;;;;22.99;86.33;99717.09;10404036;28;20132;-70
2022/07/22 16:29:19;;;;;;;13.85;5.05;;;;;;;23.16;87.79;99764.84;10396893;28;20482;-70
2022/07/22 16:34:20;;;;;;;13.23;4.63;;;;;;;23.03;89.01;99787.81;10396860;28;20042;-70
2022/07/22 16:39:21;;;;;;;13.68;4.57;;;;;;;22.72;89.58;99768.66;10394226;28;20037;-70
2022/07/22 16:44:21;;;;;;;9.63;5.10;;;;;;;22.71;90.04;99796.84;10393028;28;20567;-70
2022/07/22 16:49:22;;;;;;;17.80;6.35;;;;;;;22.64;89.61;99796.22;10401740;28;20084;-70
2022/07/22 16:54:23;;;;;;;12.80;7.28;;;;;;;22.49;89.50;99798.84;10396963;28;20073;-70
2022/07/22 16:59:24;;;;;;;13.43;8.27;;;;;;;22.45;88.74;99792.31;10408770;28;20033;-70
2022/07/22 17:04:25;;;;;;;14.57;9.43;;;;;;;22.40;89.11;99808.50;10395897;28;20041;-70
2022/07/22 17:09:26;;;;;;;22.65;10.52;;;;;;;22.39;89.30;99812.31;10393019;28;20516;-70
2022/07/22 17:14:28;;;;;;;25.95;11.30;;;;;;;22.24;90.34;99800.28;10402556;28;20076;-70
2022/07/22 17:19:29;;;;;;;16.20;10.80;;;;;;;22.32;89.82;99802.50;10407556;28;20152;-70
2022/07/22 17:24:29;;;;;;;20.83;11.85;;;;;;;22.02;89.50;99754.34;10409888;28;20037;-70
2022/07/22 17:29:30;;;;;;;26.20;12.57;;;;;;;22.25;89.76;99791.06;10401022;28;20408;-70
2022/07/22 17:34:32;;;;;;;28.40;12.20;;;;;;;22.15;91.07;99784.75;10411363;28;20049;-70
2022/07/22 17:39:32;;;;;;;17.85;12.07;;;;;;;22.25;92.62;99818.13;10408128;28;20041;-70
2022/07/22 17:44:33;;;;;;;20.98;12.05;;;;;;;22.18;93.68;99831.06;10399653;28;20050;-70
2022/07/22 17:49:34;;;;;;;16.60;11.95;;;;;;;22.01;93.90;99823.03;10412442;28;20056;-68
2022/07/22 17:54:35;;;;;;;23.90;12.00;;;;;;;21.67;94.06;99751.34;10417324;28;20072;-71
2022/07/22 17:59:36;;;;;;;18.38;11.07;;;;;;;21.75;94.01;99767.09;10411935;28;20508;-68
2022/07/22 18:04:37;;;;;;;18.25;13.75;;;;;;;21.99;94.21;99803.56;10416283;28;20041;-68
2022/07/22 18:09:37;;;;;;;24.27;15.27;;;;;;;22.19;93.98;99858.94;10416418;28;20037;-68
2022/07/22 18:14:38;;;;;;;23.00;14.98;;;;;;;21.95;94.46;99861.09;10416584;28;20049;-67
2022/07/22 18:19:39;;;;;;;23.30;16.80;;;;;;;21.90;95.89;99880.81;10413111;28;20087;-66
2022/07/22 18:24:40;;;;;;;27.80;19.02;;;;;;;22.00;96.04;99878.19;10388085;28;20565;-70
2022/07/22 18:29:41;;;;;;;31.35;23.10;;;;;;;21.94;95.04;99849.47;10413423;28;20037;-69
2022/07/22 18:34:42;;;;;;;30.65;21.98;;;;;;;22.16;94.13;99862.13;10415007;28;20490;-69
2022/07/22 18:39:43;;;;;;;29.52;19.90;;;;;;;22.08;94.05;99856.13;10414314;28;20116;-68
2022/07/22 18:44:43;;;;;;;22.90;17.58;;;;;;;22.13;93.21;99855.31;10414760;28;20128;-70
2022/07/22 18:49:44;;;;;;;28.10;15.43;;;;;;;22.32;92.08;99886.41;10410464;28;20057;-70
2022/07/22 18:54:45;;;;;;;15.70;9.70;;;;;;;22.32;88.92;99888.28;10414721;28;20056;-71
2022/07/22 18:59:46;;;;;;;16.70;6.40;;;;;;;22.34;85.34;99889.66;10414219;28;20041;-70
2022/07/22 19:04:47;;;;;;;11.18;3.85;;;;;;;22.38;81.04;99889.16;10413566;28;20072;-68
2022/07/22 19:09:48;;;;;;;11.82;3.35;;;;;;;22.41;79.75;99894.06;10413902;28;20061;-70
2022/07/22 19:14:48;;;;;;;4.65;3.03;;;;;;;22.03;80.43;99841.72;10413426;28;20048;-70
2022/07/22 19:19:49;;;;;;;7.10;3.40;;;;;;;22.21;81.94;99895.47;10413484;28;20053;-69
2022/07/22 19:24:50;;;;;;;12.25;5.20;;;;;;;22.33;82.83;99946.75;10413077;28;20128;-67
2022/07/22 19:29:51;;;;;;;12.68;6.20;;;;;;;22.26;83.95;99943.44;10411674;28;20045;-71
2022/07/22 19:34:52;;;;;;;16.00;8.98;;;;;;;22.24;86.25;99961.81;10381178;28;20413;-68
2022/07/22 19:39:53;;;;;;;23.42;10.85;;;;;;;21.94;88.99;99925.19;10412576;28;20042;-69
2022/07/22 19:44:54;;;;;;;16.48;11.50;;;;;;;21.80;91.88;99929.34;10412583;28;20420;-69
2022/07/22 19:49:55;;;;;;;18.92;10.85;;;;;;;21.69;93.73;99930.28;10413055;28;20061;-69
2022/07/22 19:54:56;;;;;;;15.43;10.77;;;;;;;21.52;96.33;99933.06;10411608;28;20099;-71
2022/07/22 19:59:56;;;;;;;16.55;10.50;;;;;;;21.35;97.69;99928.47;10412919;28;20107;-70
2022/07/22 20:04:57;;;;;;;22.75;12.80;;;;;;;21.06;98.48;99890.00;10427329;28;20065;-71
2022/07/22 20:09:58;;;;;;;16.88;13.63;;;;;;;21.17;99.32;99907.13;10412769;28;20041;-71
2022/07/22 20:14:59;;;;;;;24.55;14.20;;;;;;;21.12;100.00;99904.34;10412135;28;20045;-69
2022/07/22 20:20:00;;;;;;;16.63;12.45;;;;;;;20.94;100.00;99883.88;10412475;28;20531;-71
2022/07/22 20:25:01;;;;;;;15.75;12.43;;;;;;;21.06;100.00;99908.06;10412217;28;20052;-71
2022/07/22 20:30:02;;;;;;;14.80;12.05;;;;;;;20.43;100.00;99819.09;10412732;28;20037;-72
2022/07/22 20:35:03;;;;;;;20.92;13.10;;;;;;;20.54;100.00;99848.97;10411244;28;20038;-71
2022/07/22 20:40:05;;;;;;;16.02;10.70;;;;;;;20.80;100.00;99885.28;10410963;28;20038;-71
2022/07/22 20:45:07;;;;;;;12.80;9.65;;;;;;;20.77;100.00;99891.16;10411368;28;20037;-69
2022/07/22 20:50:08;;;;;;;19.60;10.68;;;;;;;20.69;100.00;99879.69;10415071;28;20061;-71
2022/07/22 20:55:09;;;;;;;11.45;9.38;;;;;;;20.86;100.00;99919.38;10419275;28;20409;-71
2022/07/22 21:00:10;;;;;;;16.38;9.80;;;;;;;20.81;100.00;99900.41;10419555;28;20045;-70
2022/07/22 21:05:11;;;;;;;12.32;8.60;;;;;;;20.86;100.00;99903.19;10389203;28;20038;-71
2022/07/22 21:10:12;;;;;;;12.25;8.57;;;;;;;20.48;100.00;99848.03;10414314;28;20049;-68
2022/07/22 21:15:12;;;;;;;14.88;8.20;;;;;;;20.78;100.00;99890.91;10418415;28;20037;-70
2022/07/22 21:20:13;;;;;;;11.10;8.00;;;;;;;20.77;100.00;99894.69;10417442;28;20045;-71
2022/07/22 21:25:14;;;;;;;10.40;6.65;;;;;;;20.51;100.00;99864.53;10417612;28;20052;-67
2022/07/22 21:30:15;;;;;;;13.18;7.13;;;;;;;20.52;100.00;99900.47;10432711;28;20128;-70
2022/07/22 21:35:16;;;;;;;16.58;7.18;;;;;;;20.40;100.00;99899.69;10417643;28;20094;-70
2022/07/22 21:40:17;;;;;;;11.25;7.45;;;;;;;20.24;100.00;99885.13;10416561;28;20631;-71
2022/07/22 21:45:17;;;;;;;20.25;8.13;;;;;;;20.04;100.00;99870.22;10417618;28;20448;-70
2022/07/22 21:50:18;;;;;;;11.77;6.78;;;;;;;19.59;100.00;99814.38;10416232;28;20068;-70
2022/07/22 21:55:19;;;;;;;9.68;6.90;;;;;;;19.05;100.00;99759.94;10417051;28;20045;-70
2022/07/22 22:00:20;;;;;;;11.80;7.60;;;;;;;19.48;100.00;99844.84;10415383;28;20095;-69
2022/07/22 22:05:21;;;;;;;12.43;7.35;;;;;;;19.82;100.00;99890.81;10417267;28;20037;-69
2022/07/22 22:10:22;;;;;;;11.15;7.38;;;;;;;19.80;100.00;99907.25;10416268;28;20132;-69
2022/07/22 22:15:22;;;;;;;10.45;8.00;;;;;;;19.45;100.00;99866.88;10415696;28;20065;-69
2022/07/22 22:20:23;;;;;;;12.73;7.13;;;;;;;19.09;100.00;99817.66;10415961;28;20504;-70
2022/07/22 22:25:24;;;;;;;13.60;7.22;;;;;;;19.48;100.00;99900.59;10416952;28;20030;-69
2022/07/22 22:30:25;;;;;;;9.95;6.88;;;;;;;19.22;100.00;99866.91;10415308;28;20045;-70
2022/07/22 22:35:26;;;;;;;7.85;5.97;;;;;;;19.28;100.00;99904.47;10414732;28;20497;-69
2022/07/22 22:40:27;;;;;;;12.70;6.03;;;;;;;19.15;100.00;99907.44;10415367;28;20045;-70
2022/07/22 22:45:28;;;;;;;8.55;6.57;;;;;;;19.03;100.00;99903.94;10431625;28;20040;-70
2022/07/22 22:50:29;;;;;;;10.65;7.00;;;;;;;19.01;100.00;99912.22;10497506;28;20096;-69
2022/07/22 22:55:30;;;;;;;9.25;6.85;;;;;;;18.86;100.00;99906.50;10496339;28;20044;-70
2022/07/22 23:00:32;;;;;;;10.68;7.20;;;;;;;18.74;100.00;99892.22;10496929;28;20044;-70
2022/07/22 23:05:33;;;;;;;21.85;6.85;;;;;;;18.26;100.00;99821.34;10496890;28;20119;-70
2022/07/22 23:10:33;;;;;;;9.82;6.75;;;;;;;18.29;100.00;99852.34;10495873;28;20108;-70
2022/07/22 23:15:34;;;;;;;10.80;6.20;;;;;;;18.04;100.00;99818.41;10496486;28;20037;-70